createdAt,value
2019-02-23T00:00:12.514Z,23.70
2019-02-23T00:05:07.719Z,23.47
2019-02-23T00:10:06.019Z,25.07
2019-02-23T00:15:07.079Z,23.13
2019-02-23T00:20:05.881Z,23.83
2019-02-23T00:25:01.821Z,23.97
2019-02-23T00:29:57.740Z,26.97
2019-02-23T00:34:53.683Z,26.17
2019-02-23T00:39:49.643Z,36.30
2019-02-23T00:44:46.471Z,31.10
2019-02-23T00:49:42.369Z,28.20
2019-02-23T00:54:38.266Z,29.07
2019-02-23T00:59:34.210Z,27.93
2019-02-23T01:04:30.106Z,28.90
2019-02-23T01:09:26.020Z,27.10
2019-02-23T01:14:21.920Z,32.63
2019-02-23T01:19:17.908Z,28.57
2019-02-23T01:24:13.814Z,36.33
2019-02-23T01:29:09.712Z,30.90
2019-02-23T01:34:05.819Z,29.90
2019-02-23T01:39:01.920Z,27.33
2019-02-23T01:44:00.403Z,28.30
2019-02-23T01:48:55.629Z,30.23
2019-02-23T01:53:51.531Z,29.40
2019-02-23T01:58:47.457Z,28.97
2019-02-23T02:03:43.357Z,29.03
2019-02-23T02:08:39.656Z,27.50
2019-02-23T02:13:35.658Z,30.77
2019-02-23T02:18:31.556Z,28.80
2019-02-23T02:23:27.449Z,32.33
2019-02-23T02:28:23.342Z,33.07
2019-02-23T02:33:19.242Z,32.67
2019-02-23T02:38:15.345Z,31.30
2019-02-23T02:43:11.243Z,29.10
2019-02-23T02:48:07.147Z,24.87
2019-02-23T02:53:03.019Z,26.47
2019-02-23T02:57:58.953Z,30.47
2019-02-23T03:02:54.827Z,25.77
2019-02-23T03:07:50.734Z,21.33
2019-02-23T03:12:46.697Z,27.43
2019-02-23T03:17:42.591Z,21.67
2019-02-23T03:22:38.588Z,22.33
2019-02-23T03:27:34.591Z,22.13
2019-02-23T03:32:30.486Z,20.50
2019-02-23T03:37:26.404Z,21.70
2019-02-23T03:42:22.296Z,25.63
2019-02-23T03:47:18.196Z,20.30
2019-02-23T03:52:14.093Z,20.63
2019-02-23T03:57:10.047Z,23.37
2019-02-23T04:02:06.131Z,21.03
2019-02-23T04:07:02.122Z,23.60
2019-02-23T04:11:58.016Z,24.40
2019-02-23T04:16:53.912Z,20.00
2019-02-23T04:21:49.811Z,22.17
2019-02-23T04:26:45.818Z,22.03
2019-02-23T04:31:41.699Z,23.77
2019-02-23T04:36:37.596Z,24.30
2019-02-23T04:41:33.489Z,27.13
2019-02-23T04:46:29.388Z,28.30
2019-02-23T04:51:25.487Z,24.83
2019-02-23T04:56:21.417Z,25.27
2019-02-23T05:01:17.317Z,24.73
2019-02-23T05:06:13.294Z,28.07
2019-02-23T05:11:09.188Z,26.90
2019-02-23T05:16:05.082Z,31.90
2019-02-23T05:21:00.979Z,22.67
2019-02-23T05:25:56.900Z,27.73
2019-02-23T05:30:52.798Z,30.00
2019-02-23T05:35:48.843Z,29.33
2019-02-23T05:40:44.761Z,26.83
2019-02-23T05:45:41.265Z,32.07
2019-02-23T05:50:37.125Z,26.83
2019-02-23T05:55:33.029Z,33.27
2019-02-23T06:00:29.014Z,28.50
2019-02-23T06:05:24.915Z,32.57
2019-02-23T06:10:20.811Z,27.77
2019-02-23T06:15:18.835Z,26.90
2019-02-23T06:20:14.836Z,28.20
2019-02-23T06:25:10.750Z,34.13
2019-02-23T06:30:11.378Z,34.63
2019-02-23T06:35:08.653Z,30.80
2019-02-23T06:40:07.294Z,36.37
2019-02-23T06:45:10.102Z,35.97
2019-02-23T06:50:06.591Z,34.17
2019-02-23T06:55:02.686Z,37.00
2019-02-23T06:59:58.577Z,37.63
2019-02-23T07:04:54.472Z,34.93
2019-02-23T07:09:50.371Z,39.67
2019-02-23T07:14:50.531Z,40.17
2019-02-23T07:19:46.563Z,38.73
2019-02-23T07:24:42.562Z,41.87
2019-02-23T07:29:38.574Z,39.77
2019-02-23T07:34:34.466Z,39.57
2019-02-23T07:39:30.374Z,37.90
2019-02-23T07:44:26.269Z,40.10
2019-02-23T07:49:22.194Z,38.80
2019-02-23T07:54:18.087Z,47.63
2019-02-23T07:59:14.070Z,48.20
2019-02-23T08:04:09.970Z,40.23
2019-02-23T08:09:06.863Z,42.70
2019-02-23T08:14:02.807Z,45.13
2019-02-23T08:18:59.218Z,40.20
2019-02-23T08:23:55.198Z,39.33
2019-02-23T08:28:51.540Z,43.97
2019-02-23T08:33:47.487Z,41.17
2019-02-23T08:38:43.787Z,43.03
2019-02-23T08:43:39.866Z,41.40
2019-02-23T08:48:36.804Z,42.27
2019-02-23T08:53:33.862Z,42.00
2019-02-23T08:58:29.859Z,46.93
2019-02-23T09:03:25.753Z,46.17
2019-02-23T09:08:21.637Z,43.93
2019-02-23T09:13:17.547Z,44.80
2019-02-23T09:18:14.912Z,48.67
2019-02-23T09:23:10.868Z,41.57
2019-02-23T09:28:06.790Z,44.03
2019-02-23T09:33:02.818Z,45.67
2019-02-23T09:37:59.621Z,45.80
2019-02-23T09:42:55.531Z,41.57
2019-02-23T09:47:51.472Z,41.67
2019-02-23T09:52:47.472Z,41.70
2019-02-23T09:57:43.450Z,40.00
2019-02-23T10:02:39.389Z,37.93
2019-02-23T10:07:36.358Z,41.13
2019-02-23T10:12:33.326Z,36.47
2019-02-23T10:17:29.362Z,43.03
2019-02-23T10:22:27.299Z,36.03
2019-02-23T10:27:23.417Z,33.77
2019-02-23T10:32:20.556Z,30.60
2019-02-23T10:37:16.559Z,35.60
2019-02-23T10:42:13.869Z,33.63
2019-02-23T10:47:10.037Z,35.57
2019-02-23T10:52:06.114Z,35.53
2019-02-23T10:57:02.087Z,35.10
2019-02-23T11:01:58.051Z,29.70
2019-02-23T11:06:55.165Z,34.30
2019-02-23T11:11:51.165Z,32.47
2019-02-23T11:16:47.074Z,29.87
2019-02-23T11:21:43.010Z,30.87
2019-02-23T11:26:38.947Z,30.07
2019-02-23T11:31:34.838Z,30.70
2019-02-23T11:36:30.732Z,27.57
2019-02-23T11:41:26.658Z,29.87
2019-02-23T11:46:22.560Z,28.73
2019-02-23T11:51:18.462Z,25.70
2019-02-23T11:56:14.368Z,24.60
2019-02-23T12:01:11.422Z,25.43
2019-02-23T12:06:07.373Z,25.83
2019-02-23T12:11:03.318Z,21.87
2019-02-23T12:15:59.222Z,20.50
2019-02-23T12:20:55.170Z,21.13
2019-02-23T12:25:51.164Z,27.70
2019-02-23T12:30:47.055Z,21.40
2019-02-23T12:35:43.005Z,18.87
2019-02-23T12:40:47.519Z,20.80
2019-02-23T12:45:44.379Z,19.57
2019-02-23T12:50:40.355Z,17.03
2019-02-23T12:55:36.388Z,20.57
2019-02-23T13:00:32.328Z,18.80
2019-02-23T13:05:28.463Z,16.60
2019-02-23T13:10:26.746Z,20.90
2019-02-23T13:15:48.898Z,15.53
2019-02-23T13:21:01.063Z,14.37
2019-02-23T13:26:10.157Z,15.87
2019-02-23T13:31:22.129Z,14.03
2019-02-23T13:36:43.193Z,16.37
2019-02-23T13:41:51.741Z,11.47
2019-02-23T13:47:00.694Z,12.53
2019-02-23T13:52:03.424Z,13.50
2019-02-23T13:57:17.717Z,12.30
2019-02-23T14:02:34.211Z,12.50
2019-02-23T14:07:48.793Z,12.60
2019-02-23T14:13:13.048Z,9.30
2019-02-23T14:18:24.623Z,10.63
2019-02-23T14:23:36.286Z,11.93
2019-02-23T14:28:41.998Z,12.90
2019-02-23T14:33:47.753Z,10.70
2019-02-23T14:39:02.316Z,13.87
2019-02-23T14:44:20.509Z,14.90
2019-02-23T14:49:25.991Z,11.93
2019-02-23T14:54:31.499Z,10.57
2019-02-23T14:59:34.030Z,12.87
2019-02-23T15:04:51.647Z,13.17
2019-02-23T15:10:14.204Z,12.50
2019-02-23T15:15:29.725Z,9.73
2019-02-23T15:20:32.153Z,11.77
2019-02-23T15:26:09.553Z,15.07
2019-02-23T15:31:24.404Z,12.70
2019-02-23T15:36:40.992Z,11.60
2019-02-23T15:41:56.281Z,14.67
2019-02-23T15:47:16.871Z,12.87
2019-02-23T15:52:15.884Z,12.77
2019-02-23T15:57:11.851Z,15.23
2019-02-23T16:02:08.009Z,14.33
2019-02-23T16:07:04.924Z,14.90
2019-02-23T16:12:01.690Z,36.67
2019-02-23T16:16:59.387Z,13.60
2019-02-23T16:21:57.687Z,16.87
2019-02-23T16:26:53.787Z,15.20
2019-02-23T16:31:50.571Z,20.53
2019-02-23T16:36:48.351Z,18.23
2019-02-23T16:41:45.175Z,17.90
2019-02-23T16:46:41.843Z,20.00
2019-02-23T16:51:38.823Z,15.83
2019-02-23T16:56:34.879Z,18.17
2019-02-23T17:01:31.371Z,15.53
2019-02-23T17:06:27.464Z,23.87
2019-02-23T17:11:24.113Z,16.50
2019-02-23T17:16:20.110Z,16.43
2019-02-23T17:21:16.102Z,21.63
2019-02-23T17:26:12.635Z,15.97
2019-02-23T17:31:10.071Z,16.53
2019-02-23T17:36:07.199Z,13.43
2019-02-23T17:41:05.938Z,17.30
2019-02-23T17:46:05.539Z,18.77
2019-02-23T17:51:01.674Z,16.47
2019-02-23T17:55:57.606Z,17.17
2019-02-23T18:00:54.254Z,17.77
2019-02-23T18:05:52.399Z,20.60
2019-02-23T18:10:49.202Z,18.47
2019-02-23T18:15:49.836Z,15.50
2019-02-23T18:20:48.360Z,19.07
2019-02-23T18:25:46.051Z,16.97
2019-02-23T18:30:42.053Z,18.03
2019-02-23T18:35:39.053Z,15.97
2019-02-23T18:40:35.081Z,16.70
2019-02-23T18:45:35.872Z,16.10
2019-02-23T18:50:31.895Z,16.60
2019-02-23T18:55:27.809Z,14.13
2019-02-23T19:00:43.611Z,17.70
2019-02-23T19:05:49.694Z,15.83
2019-02-23T19:10:46.495Z,17.50
2019-02-23T19:15:46.850Z,19.27
2019-02-23T19:20:42.847Z,21.53
2019-02-23T19:25:38.750Z,16.00
2019-02-23T19:30:34.741Z,19.63
2019-02-23T19:35:30.643Z,21.50
2019-02-23T19:40:26.591Z,20.00
2019-02-23T19:45:24.353Z,20.30
2019-02-23T19:50:24.085Z,16.73
2019-02-23T19:55:20.060Z,18.47
2019-02-23T20:00:15.963Z,20.20
2019-02-23T20:05:11.915Z,18.03
2019-02-23T20:10:09.307Z,19.13
2019-02-23T20:15:13.522Z,18.53
2019-02-23T20:20:09.515Z,19.53
2019-02-23T20:25:07.024Z,18.00
2019-02-23T20:30:06.223Z,13.33
2019-02-23T20:35:02.325Z,21.73
2019-02-23T20:39:58.225Z,17.07
2019-02-23T20:44:54.224Z,15.00
2019-02-23T20:49:50.414Z,15.07
2019-02-23T20:54:47.213Z,20.37
2019-02-23T20:59:43.202Z,15.20
2019-02-23T21:04:39.108Z,17.03
2019-02-23T21:09:35.011Z,18.27
2019-02-23T21:14:30.909Z,14.73
2019-02-23T21:19:26.809Z,16.03
2019-02-23T21:24:22.708Z,14.73
2019-02-23T21:29:18.743Z,15.50
2019-02-23T21:34:14.650Z,15.73
2019-02-23T21:39:10.545Z,12.00
2019-02-23T21:44:07.287Z,11.80
2019-02-23T21:49:03.183Z,17.67
2019-02-23T21:53:59.157Z,13.77
2019-02-23T21:58:55.043Z,18.17
2019-02-23T22:03:50.944Z,17.80
2019-02-23T22:08:46.836Z,13.37
2019-02-23T22:13:42.809Z,15.00
2019-02-23T22:18:38.702Z,15.23
2019-02-23T22:23:34.613Z,16.37
2019-02-23T22:28:30.549Z,11.33
2019-02-23T22:33:26.445Z,14.67
2019-02-23T22:38:22.347Z,13.67
2019-02-23T22:43:18.242Z,9.47
2019-02-23T22:48:14.166Z,15.23
2019-02-23T22:53:10.069Z,13.63
2019-02-23T22:58:05.964Z,12.57
2019-02-23T23:03:01.876Z,15.70
2019-02-23T23:07:57.777Z,13.90
2019-02-23T23:12:53.669Z,14.83
2019-02-23T23:17:49.585Z,13.73
2019-02-23T23:22:45.478Z,15.37
2019-02-23T23:27:49.099Z,11.07
2019-02-23T23:32:39.297Z,11.10
2019-02-23T23:37:35.191Z,12.07
2019-02-23T23:42:31.097Z,15.83
2019-02-23T23:47:26.990Z,14.57
2019-02-23T23:52:22.891Z,16.23
2019-02-23T23:57:18.785Z,14.70
